Time;durP1;ratioP1;P1;durP2;ratioP2;P2;SDS_P1;SDS_P2;PMS_P1;PMS_P2;Temp;Humidity;BMP_temperature;BMP_pressure;BME280_temperature;BME280_humidity;BME280_pressure;Samples;Min_cycle;Max_cycle;Signal;HPM_P1;HPM_P2
2022/10/20 00:01:05;;;;;;;4.72;0.80;;;32.30;39.80;;;;;;5087142;28;20092;-72
2022/10/20 00:03:31;;;;;;;2.33;1.05;;;32.40;39.40;;;;;;5089802;28;20075;-72
2022/10/20 00:06:13;;;;;;;4.10;1.17;;;32.40;39.50;;;;;;5089153;28;20424;-71
2022/10/20 00:08:41;;;;;;;3.08;0.60;;;32.30;39.00;;;;;;5094640;28;20060;-70
2022/10/20 00:11:09;;;;;;;2.15;0.80;;;32.20;38.90;;;;;;5087864;28;20083;-71
2022/10/20 00:13:36;;;;;;;4.75;1.00;;;32.00;40.10;;;;;;5087467;28;20072;-71
2022/10/20 00:16:03;;;;;;;2.55;1.08;;;32.00;39.10;;;;;;5088680;28;20107;-71
2022/10/20 00:18:30;;;;;;;2.22;0.77;;;32.00;39.20;;;;;;5091003;28;20075;-72
2022/10/20 00:20:57;;;;;;;3.45;0.82;;;31.90;39.00;;;;;;5097600;28;20152;-72
2022/10/20 00:23:24;;;;;;;6.80;1.42;;;31.90;39.10;;;;;;5091658;28;20060;-72
2022/10/20 00:26:05;;;;;;;1.92;1.10;;;31.80;39.20;;;;;;5096380;28;20066;-71
2022/10/20 00:28:32;;;;;;;4.18;1.42;;;31.70;40.60;;;;;;5091464;28;20068;-70
2022/10/20 00:30:59;;;;;;;6.32;1.00;;;31.50;40.70;;;;;;5092104;28;20094;-72
2022/10/20 00:33:26;;;;;;;2.40;0.93;;;31.50;40.90;;;;;;5095667;28;20118;-69
2022/10/20 00:35:53;;;;;;;5.13;0.90;;;31.40;40.70;;;;;;5091176;28;20072;-71
2022/10/20 00:38:19;;;;;;;6.38;0.95;;;31.40;40.90;;;;;;5091486;28;20099;-71
2022/10/20 00:40:46;;;;;;;4.18;1.20;;;31.30;40.80;;;;;;5090854;28;20084;-70
2022/10/20 00:43:14;;;;;;;5.72;1.00;;;31.20;41.30;;;;;;5090163;28;20072;-73
2022/10/20 00:45:44;;;;;;;6.07;0.93;;;31.20;41.60;;;;;;5089479;28;20166;-70
2022/10/20 00:48:30;;;;;;;11.13;1.52;;;31.10;41.80;;;;;;5093859;28;20084;-70
2022/10/20 00:50:57;;;;;;;4.00;1.60;;;31.00;42.10;;;;;;5089300;28;20147;-73
2022/10/20 00:53:27;;;;;;;7.60;1.60;;;30.90;42.00;;;;;;5091403;28;20071;-71
2022/10/20 00:55:57;;;;;;;6.45;1.60;;;30.80;42.70;;;;;;5094652;28;20105;-69
2022/10/20 00:58:24;;;;;;;17.98;1.98;;;30.70;43.40;;;;;;5091774;28;20600;-70
2022/10/20 01:00:55;;;;;;;5.18;1.90;;;30.70;42.70;;;;;;5090635;28;20541;-69
2022/10/20 01:03:31;;;;;;;6.93;1.55;;;30.60;42.70;;;;;;5100158;28;20080;-71
2022/10/20 01:05:57;;;;;;;6.53;1.40;;;30.50;42.80;;;;;;5096028;28;20071;-71
2022/10/20 01:08:23;;;;;;;8.65;1.75;;;30.40;42.80;;;;;;5099418;28;20103;-68
2022/10/20 01:11:12;;;;;;;5.75;1.38;;;30.40;43.10;;;;;;5091331;28;20083;-72
2022/10/20 01:14:16;;;;;;;7.63;1.75;;;30.30;43.60;;;;;;5095521;28;20073;-71
2022/10/20 01:17:18;;;;;;;12.52;1.58;;;30.20;44.10;;;;;;5052402;28;20142;-70
2022/10/20 01:19:59;;;;;;;3.47;1.33;;;30.10;43.70;;;;;;5090353;28;20078;-69
2022/10/20 01:22:55;;;;;;;13.13;1.85;;;30.00;44.10;;;;;;5090731;28;20096;-71
2022/10/20 01:25:52;;;;;;;11.55;1.75;;;29.90;44.20;;;;;;5092887;28;20373;-70
2022/10/20 01:28:29;;;;;;;15.75;2.10;;;29.90;44.10;;;;;;5101106;28;20593;-71
2022/10/20 01:30:59;;;;;;;12.73;2.50;;;29.80;45.00;;;;;;5091641;28;20076;-70
2022/10/20 01:33:37;;;;;;;12.70;2.83;;;29.70;44.50;;;;;;5089520;28;20159;-71
2022/10/20 01:36:39;;;;;;;15.85;3.30;;;29.70;45.30;;;;;;5093503;28;20064;-70
2022/10/20 01:39:33;;;;;;;16.15;3.00;;;29.60;44.80;;;;;;5090933;28;20100;-71
2022/10/20 01:42:14;;;;;;;17.83;3.10;;;29.60;45.00;;;;;;5090047;28;20075;-70
2022/10/20 01:44:42;;;;;;;20.90;4.05;;;29.50;44.90;;;;;;5094054;28;20111;-72
2022/10/20 01:47:10;;;;;;;13.80;5.07;;;29.40;44.80;;;;;;5094427;28;20156;-71
2022/10/20 01:49:40;;;;;;;14.45;5.00;;;29.40;45.10;;;;;;5091004;28;20121;-69
2022/10/20 01:52:06;;;;;;;23.27;5.03;;;29.40;45.10;;;;;;5091045;28;20121;-70
2022/10/20 01:54:32;;;;;;;20.83;4.80;;;29.30;45.20;;;;;;5091098;28;20154;-71
2022/10/20 01:57:02;;;;;;;20.73;5.30;;;29.30;45.70;;;;;;5092623;28;20072;-71
2022/10/20 01:59:51;;;;;;;20.80;5.68;;;29.20;46.20;;;;;;5091479;28;20170;-71
2022/10/20 02:02:36;;;;;;;24.73;5.40;;;29.20;45.70;;;;;;5080500;28;20108;-70
2022/10/20 02:05:32;;;;;;;20.35;5.32;;;29.10;45.80;;;;;;5091593;28;20462;-70
2022/10/20 02:08:13;;;;;;;23.30;5.13;;;29.20;45.70;;;;;;5097076;28;20615;-71
2022/10/20 02:10:51;;;;;;;21.17;5.82;;;29.00;46.00;;;;;;5094361;28;20444;-71
2022/10/20 02:13:20;;;;;;;23.23;7.85;;;29.00;45.90;;;;;;5095433;28;20124;-69
2022/10/20 02:15:52;;;;;;;23.80;8.25;;;29.00;45.90;;;;;;5088827;28;20551;-71
2022/10/20 02:18:28;;;;;;;28.38;11.30;;;28.90;46.00;;;;;;5090575;28;20069;-70
2022/10/20 02:20:58;;;;;;;31.40;13.85;;;28.90;46.30;;;;;;5096147;28;20125;-71
2022/10/20 02:23:24;;;;;;;40.15;14.30;;;28.80;46.30;;;;;;5093516;28;20081;-70
2022/10/20 02:25:53;;;;;;;34.72;14.75;;;28.80;46.70;;;;;;5091410;28;20072;-70
2022/10/20 02:28:21;;;;;;;37.08;14.88;;;28.80;46.20;;;;;;5089909;28;20088;-71
2022/10/20 02:30:48;;;;;;;35.97;14.57;;;28.70;46.30;;;;;;5096075;28;20075;-69
2022/10/20 02:33:16;;;;;;;29.52;14.75;;;28.70;46.60;;;;;;5088869;28;20088;-70
2022/10/20 02:35:50;;;;;;;42.97;17.23;;;28.60;47.00;;;;;;5088861;28;20115;-70
2022/10/20 02:38:16;;;;;;;48.38;16.63;;;28.60;47.20;;;;;;5089506;28;20613;-71
2022/10/20 02:40:43;;;;;;;44.25;17.35;;;28.50;47.70;;;;;;5089317;28;20084;-69
2022/10/20 02:43:09;;;;;;;54.33;19.67;;;28.50;47.50;;;;;;5093086;28;20102;-72
2022/10/20 02:45:36;;;;;;;54.78;22.20;;;28.50;47.80;;;;;;5090842;28;20168;-72
2022/10/20 02:48:02;;;;;;;52.95;23.42;;;28.40;47.70;;;;;;5090689;28;20064;-70
2022/10/20 02:50:29;;;;;;;80.30;24.50;;;28.40;48.50;;;;;;5090118;28;20095;-71
2022/10/20 02:52:55;;;;;;;49.80;22.25;;;28.40;48.30;;;;;;5086777;28;20076;-70
2022/10/20 02:55:22;;;;;;;61.67;23.80;;;28.30;48.30;;;;;;5088472;28;20091;-70
2022/10/20 02:57:48;;;;;;;61.45;22.65;;;28.20;48.90;;;;;;5093057;28;20066;-70
2022/10/20 03:00:15;;;;;;;58.53;21.98;;;28.20;49.20;;;;;;5095121;28;20094;-71
2022/10/20 03:02:41;;;;;;;56.35;21.48;;;28.10;49.10;;;;;;5089218;28;20088;-69
2022/10/20 03:05:07;;;;;;;60.95;20.48;;;28.10;49.80;;;;;;5088123;28;20064;-70
2022/10/20 03:07:34;;;;;;;45.30;19.92;;;28.00;50.20;;;;;;5097804;28;20150;-70
2022/10/20 03:10:00;;;;;;;64.72;19.80;;;28.00;50.40;;;;;;5089692;28;21066;-69
2022/10/20 03:12:27;;;;;;;54.72;18.40;;;27.90;50.00;;;;;;5093681;28;20072;-71
2022/10/20 03:14:53;;;;;;;42.38;17.08;;;27.80;49.80;;;;;;5087852;28;20071;-71
2022/10/20 03:17:19;;;;;;;63.17;18.27;;;27.80;50.00;;;;;;5087629;28;20115;-72
2022/10/20 03:19:46;;;;;;;57.40;17.65;;;27.80;50.20;;;;;;5089157;28;20432;-72
2022/10/20 03:22:12;;;;;;;48.80;15.98;;;27.70;50.20;;;;;;5089885;28;20141;-72
2022/10/20 03:24:39;;;;;;;57.53;15.07;;;27.70;50.00;;;;;;5093287;28;20073;-68
2022/10/20 03:27:05;;;;;;;47.50;15.85;;;27.70;49.60;;;;;;5088125;28;20137;-72
2022/10/20 03:29:31;;;;;;;45.10;13.73;;;27.60;49.70;;;;;;5088290;28;20073;-73
2022/10/20 03:31:58;;;;;;;45.65;14.57;;;27.60;49.70;;;;;;5087883;28;20304;-72
2022/10/20 03:34:24;;;;;;;49.53;15.30;;;27.60;49.70;;;;;;5087758;28;20105;-71
2022/10/20 03:36:50;;;;;;;51.50;16.90;;;27.50;50.00;;;;;;5087809;28;20197;-70
2022/10/20 03:39:17;;;;;;;57.95;15.48;;;27.50;50.40;;;;;;5098830;28;20076;-73
2022/10/20 03:41:43;;;;;;;63.42;15.93;;;27.50;50.50;;;;;;5098949;28;20549;-72
2022/10/20 03:44:10;;;;;;;62.20;14.85;;;27.40;50.70;;;;;;5089786;28;20515;-71
2022/10/20 03:46:36;;;;;;;62.33;14.23;;;27.30;51.20;;;;;;5090204;28;20069;-71
2022/10/20 03:49:03;;;;;;;63.45;15.07;;;27.20;51.60;;;;;;5092035;28;20096;-73
2022/10/20 03:51:30;;;;;;;48.17;13.70;;;27.20;52.00;;;;;;5094429;28;20120;-73
2022/10/20 03:53:56;;;;;;;62.22;14.10;;;27.10;51.90;;;;;;5091830;28;20071;-73
2022/10/20 03:56:22;;;;;;;51.00;14.68;;;27.00;52.10;;;;;;5094845;28;20083;-71
2022/10/20 03:58:49;;;;;;;76.35;15.80;;;26.90;52.10;;;;;;5094542;28;20115;-71
2022/10/20 04:01:19;;;;;;;58.03;14.68;;;26.90;52.60;;;;;;5094117;28;20092;-71
2022/10/20 04:03:45;;;;;;;59.38;13.70;;;26.80;52.90;;;;;;5092091;28;20151;-73
2022/10/20 04:06:13;;;;;;;64.55;13.43;;;26.80;52.70;;;;;;5093614;28;20077;-72
2022/10/20 04:08:40;;;;;;;39.33;12.70;;;26.70;53.10;;;;;;5097819;28;20096;-71
2022/10/20 04:11:06;;;;;;;69.05;12.75;;;26.70;53.10;;;;;;5097213;28;20072;-72
2022/10/20 04:13:33;;;;;;;51.70;12.30;;;26.70;52.90;;;;;;5096257;28;20073;-74
2022/10/20 04:15:59;;;;;;;44.75;11.88;;;26.60;53.00;;;;;;5093738;28;20113;-72
2022/10/20 04:18:26;;;;;;;58.03;12.90;;;26.50;53.30;;;;;;5102350;28;20572;-73
2022/10/20 04:20:52;;;;;;;59.75;12.32;;;26.50;54.50;;;;;;5100629;28;20091;-72
2022/10/20 04:23:18;;;;;;;55.50;13.30;;;26.40;54.20;;;;;;5097055;27;20105;-71
2022/10/20 04:25:47;;;;;;;63.45;12.40;;;26.40;54.90;;;;;;5091630;28;20072;-71
2022/10/20 04:28:15;;;;;;;61.95;12.85;;;26.30;55.20;;;;;;5094228;28;20065;-72
2022/10/20 04:30:42;;;;;;;55.08;11.05;;;26.20;56.20;;;;;;5099250;28;20115;-72
2022/10/20 04:33:08;;;;;;;60.97;11.32;;;26.10;56.90;;;;;;5092697;28;20081;-72
2022/10/20 04:35:35;;;;;;;51.63;10.48;;;26.00;57.80;;;;;;5093064;28;20100;-71
2022/10/20 04:38:01;;;;;;;53.65;11.13;;;26.00;57.90;;;;;;5092712;28;20073;-72
2022/10/20 04:40:28;;;;;;;49.30;10.05;;;25.90;57.80;;;;;;5091706;28;20174;-71
2022/10/20 04:42:54;;;;;;;59.33;9.88;;;25.80;57.80;;;;;;5093624;28;20073;-73
2022/10/20 04:45:20;;;;;;;61.13;10.48;;;25.80;58.60;;;;;;5092826;28;20095;-72
2022/10/20 04:47:47;;;;;;;70.40;9.98;;;25.70;58.20;;;;;;5091410;28;20064;-71
2022/10/20 04:50:13;;;;;;;110.78;10.80;;;25.70;57.60;;;;;;5091832;28;20073;-68
2022/10/20 04:52:39;;;;;;;88.00;11.82;;;25.70;57.70;;;;;;5090778;28;20141;-66
2022/10/20 04:55:06;;;;;;;80.85;11.00;;;25.70;57.00;;;;;;5090580;28;20061;-67
2022/10/20 04:57:33;;;;;;;77.03;11.20;;;25.60;57.30;;;;;;5093270;28;20081;-68
2022/10/20 04:59:59;;;;;;;60.28;9.50;;;25.70;57.80;;;;;;5089459;28;20068;-69
2022/10/20 05:02:26;;;;;;;68.40;11.98;;;25.60;58.10;;;;;;5089069;28;20103;-66
2022/10/20 05:04:52;;;;;;;56.67;11.35;;;25.60;58.70;;;;;;5089895;28;20081;-66
2022/10/20 05:07:18;;;;;;;76.97;16.13;;;25.60;58.70;;;;;;5089597;28;20072;-65
2022/10/20 05:09:45;;;;;;;68.65;14.57;;;25.50;58.90;;;;;;5097882;28;20145;-66
2022/10/20 05:12:11;;;;;;;61.53;15.48;;;25.50;59.20;;;;;;5099696;28;20068;-66
2022/10/20 05:14:37;;;;;;;58.72;14.90;;;25.40;59.50;;;;;;5099143;28;20117;-69
2022/10/20 05:17:04;;;;;;;70.28;15.50;;;25.30;60.30;;;;;;5100258;28;20115;-67
2022/10/20 05:19:30;;;;;;;61.47;12.73;;;25.30;60.30;;;;;;5089654;28;20159;-69
2022/10/20 05:21:56;;;;;;;65.93;13.32;;;25.20;59.90;;;;;;5090982;28;20096;-71
2022/10/20 05:24:23;;;;;;;60.95;13.27;;;25.20;60.30;;;;;;5090022;28;20085;-71
2022/10/20 05:26:50;;;;;;;49.15;12.70;;;25.10;59.50;;;;;;5092486;28;20077;-72
2022/10/20 05:29:16;;;;;;;58.92;14.15;;;25.00;59.30;;;;;;5097123;28;20069;-66
2022/10/20 05:31:43;;;;;;;56.53;14.55;;;25.10;59.70;;;;;;5090324;28;20441;-68
2022/10/20 05:34:11;;;;;;;68.40;13.60;;;25.10;59.20;;;;;;5090343;28;20080;-69
2022/10/20 05:36:37;;;;;;;68.93;14.50;;;25.10;59.10;;;;;;5091181;28;20083;-69
2022/10/20 05:39:04;;;;;;;62.92;14.60;;;25.10;59.10;;;;;;5092065;28;20202;-69
2022/10/20 05:41:32;;;;;;;74.60;15.52;;;25.10;58.40;;;;;;5089082;28;20235;-70
2022/10/20 05:44:04;;;;;;;69.00;15.63;;;25.10;59.00;;;;;;5092100;28;20539;-70
2022/10/20 05:46:33;;;;;;;62.78;14.93;;;25.10;59.10;;;;;;5090124;28;20121;-69
2022/10/20 05:49:02;;;;;;;53.10;13.70;;;25.00;59.10;;;;;;5089778;28;20071;-70
2022/10/20 05:51:31;;;;;;;68.75;14.75;;;25.00;60.20;;;;;;5089425;28;20076;-71
2022/10/20 05:53:58;;;;;;;63.75;13.93;;;24.90;61.00;;;;;;5086634;28;20081;-68
2022/10/20 05:56:27;;;;;;;57.08;16.38;;;24.80;61.30;;;;;;5091628;28;20076;-71
2022/10/20 05:58:53;;;;;;;56.67;18.02;;;24.80;61.40;;;;;;5089502;28;20480;-71
2022/10/20 06:04:27;;;;;;;63.70;14.25;;;24.70;61.10;;;;;;5007820;28;20078;-69
2022/10/20 06:06:54;;;;;;;59.33;12.85;;;24.70;60.10;;;;;;5007775;28;20077;-69
2022/10/20 06:09:21;;;;;;;61.88;13.23;;;24.70;59.80;;;;;;5008602;28;20086;-70
2022/10/20 06:11:49;;;;;;;69.78;14.20;;;24.70;60.00;;;;;;5007947;28;20121;-70
2022/10/20 06:14:16;;;;;;;60.38;13.98;;;24.70;60.00;;;;;;5007479;28;20106;-70
2022/10/20 06:16:43;;;;;;;62.25;12.88;;;24.70;60.00;;;;;;4996949;28;20160;-70
2022/10/20 06:19:10;;;;;;;52.88;13.20;;;24.80;60.00;;;;;;5015792;28;20079;-68
2022/10/20 06:21:37;;;;;;;57.15;14.23;;;24.70;59.70;;;;;;4992199;28;20102;-70
2022/10/20 06:24:06;;;;;;;61.85;12.82;;;24.70;59.80;;;;;;5009156;28;20082;-70
2022/10/20 06:26:35;;;;;;;42.90;11.82;;;24.70;59.60;;;;;;5013123;28;20098;-70
2022/10/20 06:29:05;;;;;;;31.45;8.88;;;24.70;58.80;;;;;;4997254;28;20136;-69
2022/10/20 06:31:38;;;;;;;42.47;9.18;;;24.70;58.50;;;;;;5007537;28;20117;-71
2022/10/20 06:34:07;;;;;;;27.05;8.00;;;24.70;58.00;;;;;;5008326;28;20181;-71
2022/10/20 06:36:37;;;;;;;34.03;7.95;;;24.70;58.10;;;;;;5008149;28;20070;-71
2022/10/20 06:39:06;;;;;;;27.52;7.28;;;24.70;58.40;;;;;;5007488;28;20551;-70
2022/10/20 06:41:33;;;;;;;28.38;6.65;;;24.60;58.40;;;;;;5077886;28;20107;-69
2022/10/20 06:44:01;;;;;;;25.02;5.95;;;24.60;58.20;;;;;;5089265;28;20103;-68
2022/10/20 06:46:31;;;;;;;25.98;6.47;;;24.60;58.30;;;;;;5092351;28;20427;-69
2022/10/20 06:49:05;;;;;;;38.03;6.43;;;24.60;58.40;;;;;;5091073;28;20065;-68
2022/10/20 06:51:33;;;;;;;19.95;5.35;;;24.50;58.60;;;;;;5088026;28;20115;-69
2022/10/20 06:54:01;;;;;;;13.55;5.50;;;24.40;60.40;;;;;;5086758;28;20114;-69
2022/10/20 06:56:30;;;;;;;19.50;5.60;;;24.40;60.20;;;;;;5086021;28;20076;-67
2022/10/20 06:58:58;;;;;;;17.75;5.38;;;24.40;59.70;;;;;;5088651;28;20076;-68
2022/10/20 07:01:36;;;;;;;20.52;5.15;;;24.40;59.80;;;;;;5092087;28;20088;-70
2022/10/20 07:04:09;;;;;;;22.13;4.93;;;24.50;59.70;;;;;;5087736;28;20605;-66
2022/10/20 07:06:41;;;;;;;17.70;4.28;;;24.40;59.30;;;;;;5087993;28;20076;-67
2022/10/20 07:09:11;;;;;;;16.60;4.32;;;24.30;59.30;;;;;;5089260;28;20069;-68
2022/10/20 07:11:38;;;;;;;19.13;4.57;;;24.30;60.80;;;;;;5097343;28;20076;-69
2022/10/20 07:14:04;;;;;;;20.73;4.40;;;24.30;61.10;;;;;;5091870;28;20069;-69
2022/10/20 07:16:33;;;;;;;13.75;3.92;;;24.30;61.00;;;;;;5090040;28;20108;-68
2022/10/20 07:19:02;;;;;;;9.50;3.67;;;24.30;60.80;;;;;;5092702;28;20167;-69
2022/10/20 07:21:30;;;;;;;17.20;4.90;;;24.30;61.30;;;;;;5089458;28;20421;-67
2022/10/20 07:23:56;;;;;;;16.33;4.60;;;24.10;60.60;;;;;;5089644;28;20117;-69
2022/10/20 07:26:25;;;;;;;16.10;4.72;;;24.10;60.50;;;;;;5087351;28;20518;-69
2022/10/20 07:28:55;;;;;;;17.77;4.40;;;24.10;60.60;;;;;;5092487;28;20541;-68
2022/10/20 07:31:30;;;;;;;11.43;3.53;;;24.10;60.70;;;;;;5088715;28;20107;-69
2022/10/20 07:34:01;;;;;;;10.88;4.22;;;24.10;60.90;;;;;;5085851;28;20080;-67
2022/10/20 07:36:30;;;;;;;15.40;4.45;;;24.00;61.60;;;;;;5089571;28;20084;-68
2022/10/20 07:38:58;;;;;;;12.40;4.18;;;23.90;61.60;;;;;;5088391;28;20521;-68
2022/10/20 07:41:26;;;;;;;16.85;3.83;;;23.90;62.20;;;;;;5087861;28;20099;-69
2022/10/20 07:43:54;;;;;;;18.27;3.70;;;23.80;62.30;;;;;;5086886;28;20111;-68
2022/10/20 07:46:21;;;;;;;11.55;3.30;;;23.80;62.30;;;;;;5092909;28;20068;-68
2022/10/20 07:48:47;;;;;;;12.40;3.67;;;23.80;62.20;;;;;;5088498;28;20072;-67
2022/10/20 07:51:25;;;;;;;15.93;2.95;;;23.80;62.20;;;;;;5091687;28;20069;-69
2022/10/20 07:54:04;;;;;;;11.27;2.35;;;23.80;62.70;;;;;;5088804;28;20157;-66
2022/10/20 07:56:33;;;;;;;7.65;1.92;;;23.70;63.30;;;;;;5085204;28;20079;-68
2022/10/20 07:59:00;;;;;;;11.27;2.58;;;23.70;62.80;;;;;;5087338;28;20541;-69
2022/10/20 08:01:27;;;;;;;11.07;1.80;;;23.60;62.20;;;;;;5086010;28;20167;-67
2022/10/20 08:03:53;;;;;;;10.13;1.85;;;23.60;61.40;;;;;;5088933;28;20150;-68
2022/10/20 08:06:20;;;;;;;8.93;1.85;;;23.70;61.30;;;;;;5088856;28;20143;-69
2022/10/20 08:08:46;;;;;;;6.65;1.88;;;23.70;61.50;;;;;;5086890;28;20427;-68
2022/10/20 08:11:13;;;;;;;10.88;1.58;;;23.60;62.00;;;;;;5087282;28;20103;-70
2022/10/20 08:13:40;;;;;;;9.93;2.08;;;23.50;62.70;;;;;;5090259;28;20079;-69
2022/10/20 08:16:08;;;;;;;12.43;1.90;;;23.50;62.70;;;;;;5087110;28;20592;-69
2022/10/20 08:18:34;;;;;;;9.90;2.42;;;23.50;62.90;;;;;;5088309;28;20084;-66
2022/10/20 08:21:15;;;;;;;15.73;1.88;;;23.60;63.10;;;;;;5085607;28;20118;-67
2022/10/20 08:23:43;;;;;;;8.90;2.10;;;23.60;62.70;;;;;;5087356;28;20064;-70
2022/10/20 08:26:10;;;;;;;9.07;1.90;;;23.60;62.80;;;;;;5089156;28;20462;-67
2022/10/20 08:28:37;;;;;;;6.60;1.60;;;23.60;63.60;;;;;;5088148;28;20096;-66
2022/10/20 08:31:07;;;;;;;15.90;2.42;;;23.60;64.10;;;;;;5088516;28;20099;-68
2022/10/20 08:33:34;;;;;;;5.55;2.10;;;23.60;64.30;;;;;;5087386;28;20064;-66
2022/10/20 08:36:06;;;;;;;10.65;2.47;;;23.50;64.70;;;;;;5089519;28;20171;-66
2022/10/20 08:38:32;;;;;;;8.23;2.42;;;23.50;64.70;;;;;;5091362;28;20069;-67
2022/10/20 08:41:00;;;;;;;9.70;2.40;;;23.50;64.80;;;;;;5094699;28;20579;-67
2022/10/20 08:43:30;;;;;;;9.52;1.92;;;23.50;65.40;;;;;;5091043;28;20543;-67
2022/10/20 08:45:56;;;;;;;10.60;2.45;;;23.50;65.40;;;;;;5094733;28;20122;-68
2022/10/20 08:48:28;;;;;;;8.10;2.35;;;23.50;65.80;;;;;;5091546;28;20147;-68
2022/10/20 08:50:56;;;;;;;6.30;2.10;;;23.40;66.00;;;;;;5091152;28;20385;-68
2022/10/20 08:53:25;;;;;;;9.23;2.25;;;23.30;66.30;;;;;;5090436;28;20100;-67
2022/10/20 08:55:54;;;;;;;11.77;2.47;;;23.30;66.40;;;;;;5079176;28;20077;-69
2022/10/20 08:58:23;;;;;;;8.57;2.03;;;23.30;66.50;;;;;;5088907;28;20525;-67
2022/10/20 09:00:56;;;;;;;8.30;2.47;;;23.30;66.70;;;;;;5091461;28;20119;-67
2022/10/20 09:03:28;;;;;;;3.35;1.83;;;23.20;66.20;;;;;;5094829;28;20609;-67
2022/10/20 09:06:16;;;;;;;6.25;1.90;;;23.20;66.10;;;;;;5089543;28;20080;-68
2022/10/20 09:08:43;;;;;;;2.55;1.52;;;23.10;66.80;;;;;;5089445;28;20087;-66
2022/10/20 09:11:23;;;;;;;3.33;1.50;;;23.00;66.20;;;;;;5090698;28;20746;-68
2022/10/20 09:13:50;;;;;;;11.65;1.52;;;22.90;66.40;;;;;;5089192;28;20084;-68
2022/10/20 09:16:27;;;;;;;5.70;1.30;;;23.00;66.50;;;;;;5092640;28;20139;-69
2022/10/20 09:18:58;;;;;;;6.15;1.63;;;23.00;65.90;;;;;;5091348;28;20418;-68
2022/10/20 09:21:24;;;;;;;9.15;1.52;;;23.00;65.60;;;;;;5091196;28;20127;-69
2022/10/20 09:24:03;;;;;;;3.20;1.40;;;23.00;64.60;;;;;;5092782;28;20072;-67
2022/10/20 09:26:40;;;;;;;5.07;1.08;;;23.00;63.80;;;;;;5089687;28;20118;-69
2022/10/20 09:29:11;;;;;;;7.68;1.80;;;23.00;62.90;;;;;;5090024;28;20180;-68
2022/10/20 09:31:41;;;;;;;7.57;1.33;;;22.90;63.00;;;;;;5089746;28;20069;-67
2022/10/20 09:34:28;;;;;;;5.20;1.58;;;22.90;62.70;;;;;;5088713;28;20118;-68
2022/10/20 09:37:17;;;;;;;2.92;1.63;;;22.90;62.20;;;;;;5089596;28;20546;-68
2022/10/20 09:39:50;;;;;;;3.55;1.20;;;22.90;63.00;;;;;;5090474;28;20092;-69
2022/10/20 09:42:34;;;;;;;3.13;1.00;;;22.90;62.40;;;;;;5090093;28;20539;-69
2022/10/20 09:45:27;;;;;;;5.22;1.35;;;22.90;62.10;;;;;;5089616;28;20076;-69
2022/10/20 09:48:19;;;;;;;4.57;1.20;;;22.90;62.00;;;;;;5090074;28;20480;-69
2022/10/20 09:50:49;;;;;;;3.50;1.00;;;22.90;61.70;;;;;;5080359;28;20112;-70
2022/10/20 09:53:19;;;;;;;4.53;1.13;;;22.90;61.50;;;;;;5090602;28;20422;-69
2022/10/20 09:55:48;;;;;;;3.20;1.30;;;22.90;61.50;;;;;;5088173;28;20088;-68
2022/10/20 09:58:27;;;;;;;3.90;1.30;;;22.90;61.60;;;;;;5086708;28;20068;-69
2022/10/20 10:01:06;;;;;;;5.53;1.27;;;22.90;61.60;;;;;;5092716;28;20099;-70
2022/10/20 10:04:00;;;;;;;20.48;11.68;;;22.70;61.70;;;;;;5088844;28;20083;-67
2022/10/20 10:06:37;;;;;;;12.02;5.65;;;22.70;62.60;;;;;;5086373;28;20088;-69
2022/10/20 10:09:26;;;;;;;4.30;2.10;;;22.70;63.40;;;;;;5090018;28;20064;-71
2022/10/20 10:12:02;;;;;;;5.80;1.48;;;22.70;63.30;;;;;;5090031;28;20129;-69
2022/10/20 10:14:32;;;;;;;3.95;1.38;;;22.70;63.00;;;;;;5092727;28;20083;-66
2022/10/20 10:16:59;;;;;;;6.70;1.50;;;22.70;62.50;;;;;;5090520;28;20112;-68
2022/10/20 10:19:30;;;;;;;2.08;1.17;;;22.70;62.30;;;;;;5090924;28;20175;-69
2022/10/20 10:22:02;;;;;;;8.15;1.77;;;22.70;62.30;;;;;;5090517;28;20636;-68
2022/10/20 10:24:47;;;;;;;3.17;1.30;;;22.60;62.20;;;;;;5089214;28;20449;-67
2022/10/20 10:27:24;;;;;;;4.70;1.30;;;22.70;63.70;;;;;;5088765;28;20088;-68
2022/10/20 10:29:52;;;;;;;7.57;1.55;;;22.70;63.30;;;;;;5089812;28;20088;-68
2022/10/20 10:32:29;;;;;;;9.90;1.52;;;22.70;62.20;;;;;;5089176;28;20081;-68
2022/10/20 10:34:55;;;;;;;;;;;22.70;61.90;;;;;;5089878;28;20433;-67
2022/10/20 10:37:22;;;;;;;6.60;1.80;;;22.60;62.00;;;;;;5096711;28;19960;-68
2022/10/20 10:39:48;;;;;;;3.13;1.42;;;22.60;62.80;;;;;;5098022;28;20068;-67
2022/10/20 10:42:43;;;;;;;8.93;1.48;;;22.70;62.90;;;;;;5090244;28;20141;-67
2022/10/20 10:45:27;;;;;;;5.43;1.48;;;22.70;62.70;;;;;;5089318;28;20152;-69
2022/10/20 10:48:06;;;;;;;2.67;1.10;;;22.60;62.70;;;;;;5089650;28;20072;-69
2022/10/20 10:50:43;;;;;;;3.75;1.40;;;22.50;62.70;;;;;;5093404;28;20069;-69
2022/10/20 10:53:28;;;;;;;5.95;1.60;;;22.40;63.40;;;;;;5097566;28;20074;-67
2022/10/20 10:56:21;;;;;;;3.90;1.40;;;22.30;64.50;;;;;;5089447;28;20099;-67
2022/10/20 10:58:56;;;;;;;7.28;1.40;;;22.40;63.10;;;;;;5086810;28;20072;-66
2022/10/20 11:01:45;;;;;;;3.47;1.48;;;22.30;63.10;;;;;;5086395;28;20179;-68
2022/10/20 11:04:36;;;;;;;5.65;1.33;;;22.30;61.60;;;;;;5076293;28;20085;-68
2022/10/20 11:07:05;;;;;;;2.95;1.70;;;22.40;61.60;;;;;;5087935;28;20092;-68
2022/10/20 11:09:59;;;;;;;3.35;1.00;;;22.40;61.70;;;;;;5089104;28;20072;-69
2022/10/20 11:12:41;;;;;;;6.93;1.60;;;22.50;60.80;;;;;;5086957;28;20072;-68
2022/10/20 11:15:44;;;;;;;4.45;1.20;;;22.50;60.60;;;;;;5089641;28;20437;-68
2022/10/20 11:18:33;;;;;;;1.80;1.10;;;22.40;60.50;;;;;;5087994;28;20560;-68
2022/10/20 11:21:24;;;;;;;12.77;1.13;;;22.40;60.60;;;;;;5087834;28;20104;-68
2022/10/20 11:23:59;;;;;;;5.32;1.45;;;22.40;60.80;;;;;;5089222;28;20091;-68
2022/10/20 11:26:32;;;;;;;6.85;1.40;;;22.40;60.80;;;;;;5088780;28;20727;-67
2022/10/20 11:29:02;;;;;;;5.30;1.50;;;22.40;61.30;;;;;;5084873;28;20108;-65
2022/10/20 11:32:01;;;;;;;4.60;1.60;;;22.30;62.00;;;;;;5087111;28;20445;-67
2022/10/20 11:34:40;;;;;;;7.53;1.58;;;22.20;62.60;;;;;;5087620;28;20088;-68
2022/10/20 11:37:33;;;;;;;7.35;1.98;;;22.10;63.20;;;;;;5086271;28;20095;-69
2022/10/20 11:40:26;;;;;;;9.35;1.75;;;22.10;63.50;;;;;;5078235;28;20145;-68
2022/10/20 11:43:07;;;;;;;4.95;1.55;;;22.10;64.00;;;;;;5085718;28;20088;-66
2022/10/20 11:45:36;;;;;;;7.50;1.73;;;22.10;65.00;;;;;;5088198;28;20422;-67
2022/10/20 11:48:27;;;;;;;6.53;1.77;;;22.00;65.20;;;;;;5088645;28;20073;-68
2022/10/20 11:51:06;;;;;;;4.63;1.70;;;21.90;65.40;;;;;;5086602;28;20538;-66
2022/10/20 11:53:52;;;;;;;9.23;1.90;;;21.80;66.40;;;;;;5088763;28;20533;-67
2022/10/20 11:56:24;;;;;;;6.22;1.63;;;21.80;66.70;;;;;;5087235;28;20072;-65
2022/10/20 11:59:09;;;;;;;3.78;1.35;;;21.80;66.70;;;;;;5087778;28;20152;-65
2022/10/20 12:02:05;;;;;;;6.68;2.30;;;21.70;67.60;;;;;;5086856;28;20099;-67
2022/10/20 12:04:48;;;;;;;11.23;2.08;;;21.60;67.20;;;;;;5079452;28;20107;-65
2022/10/20 12:07:23;;;;;;;12.20;2.22;;;21.70;67.10;;;;;;5086191;28;20177;-65
2022/10/20 12:10:02;;;;;;;10.40;2.20;;;21.70;66.90;;;;;;5087551;28;20605;-67
2022/10/20 12:12:47;;;;;;;9.82;2.45;;;21.70;67.30;;;;;;5088490;28;20088;-66
2022/10/20 12:15:24;;;;;;;11.73;2.38;;;21.80;67.70;;;;;;5091079;28;20099;-66
2022/10/20 12:17:52;;;;;;;16.00;2.60;;;21.80;67.70;;;;;;5092391;28;20112;-67
2022/10/20 12:20:21;;;;;;;15.85;2.40;;;21.80;67.70;;;;;;5092242;28;20076;-67
2022/10/20 12:22:53;;;;;;;14.25;3.25;;;21.70;67.50;;;;;;5096783;28;20085;-67
2022/10/20 12:25:40;;;;;;;11.68;2.80;;;21.70;67.30;;;;;;5090861;28;20075;-67
2022/10/20 12:28:21;;;;;;;10.25;3.05;;;21.60;68.10;;;;;;5093837;28;20077;-67
2022/10/20 12:31:05;;;;;;;10.32;2.30;;;21.40;68.60;;;;;;5098863;28;20091;-66
2022/10/20 12:33:59;;;;;;;10.77;2.63;;;21.50;68.90;;;;;;5095605;28;20098;-67
2022/10/20 12:36:33;;;;;;;9.88;2.47;;;21.60;68.40;;;;;;5098952;28;20068;-67
2022/10/20 12:39:08;;;;;;;17.27;2.83;;;21.50;68.40;;;;;;5093048;28;20073;-67
2022/10/20 12:41:59;;;;;;;12.38;2.47;;;21.60;68.40;;;;;;5101498;28;20141;-67
2022/10/20 12:44:28;;;;;;;9.38;2.72;;;21.60;69.10;;;;;;5094810;28;20081;-66
2022/10/20 12:47:04;;;;;;;10.27;2.28;;;21.60;69.50;;;;;;5096651;28;20093;-67
2022/10/20 12:49:49;;;;;;;10.65;3.22;;;21.50;69.70;;;;;;5090201;28;20134;-65
2022/10/20 12:52:23;;;;;;;10.30;2.63;;;21.50;69.00;;;;;;5094849;28;20092;-67
2022/10/20 12:55:07;;;;;;;14.48;3.10;;;21.50;68.60;;;;;;5089267;28;20413;-65
2022/10/20 12:57:42;;;;;;;9.15;3.08;;;21.60;68.40;;;;;;5091810;28;20086;-66
2022/10/20 13:00:22;;;;;;;14.45;3.38;;;21.60;68.20;;;;;;5087996;28;20158;-67
2022/10/20 13:02:59;;;;;;;15.27;3.30;;;21.60;67.80;;;;;;5089968;28;20612;-66
2022/10/20 13:05:28;;;;;;;24.25;3.75;;;21.60;67.90;;;;;;5090847;28;20077;-67
2022/10/20 13:08:16;;;;;;;11.60;3.00;;;21.60;68.10;;;;;;5090879;28;20068;-67